createdAt,value
2019-05-03T00:00:09.529Z,99057.66
2019-05-03T00:02:58.441Z,99067.78
2019-05-03T00:05:28.809Z,99068.36
2019-05-03T00:07:59.705Z,99060.02
2019-05-03T00:10:28.350Z,99065.06
2019-05-03T00:12:57.034Z,99066.83
2019-05-03T00:15:27.315Z,99051.64
2019-05-03T00:17:55.968Z,99052.77
2019-05-03T00:20:27.604Z,99055.05
2019-05-03T00:22:56.183Z,99047.45
2019-05-03T00:25:24.836Z,99049.86
2019-05-03T00:27:53.482Z,99049.35
2019-05-03T00:30:22.603Z,99048.13
2019-05-03T00:32:52.153Z,99058.27
2019-05-03T00:35:25.392Z,99053.55
2019-05-03T00:37:55.656Z,99048.46
2019-05-03T00:40:29.740Z,99045.11
2019-05-03T00:42:58.815Z,99044.84
2019-05-03T00:45:27.544Z,99038.97
2019-05-03T00:47:56.179Z,99041.55
2019-05-03T00:50:24.814Z,99040.19
2019-05-03T00:52:53.445Z,99039.45
2019-05-03T00:55:22.216Z,99040.86
2019-05-03T00:57:52.150Z,99037.44
2019-05-03T01:00:21.758Z,99041.33
2019-05-03T01:02:51.699Z,99044.09
2019-05-03T01:05:22.539Z,99041.74
2019-05-03T01:07:52.584Z,99043.33
2019-05-03T01:10:22.653Z,99049.83
2019-05-03T01:12:52.364Z,99041.88
2019-05-03T01:15:25.569Z,99044.88
2019-05-03T01:17:54.113Z,99039.72
2019-05-03T01:20:22.755Z,99044.48
2019-05-03T01:22:51.874Z,99045.52
2019-05-03T01:25:31.594Z,99047.04
2019-05-03T01:27:52.174Z,99050.02
2019-05-03T01:30:22.630Z,99050.16
2019-05-03T01:32:52.345Z,99052.48
2019-05-03T01:35:21.975Z,99052.38
2019-05-03T01:37:51.776Z,99050.69
2019-05-03T01:40:21.998Z,99049.89
2019-05-03T01:42:51.787Z,99048.09
2019-05-03T01:45:22.651Z,99056.55
2019-05-03T01:47:55.724Z,99052.69
2019-05-03T01:50:42.549Z,99062.13
2019-05-03T01:53:12.994Z,99054.58
2019-05-03T01:55:53.719Z,99061.56
2019-05-03T01:58:23.708Z,99063.05
2019-05-03T02:00:59.996Z,99061.14
2019-05-03T02:03:38.827Z,99061.67
2019-05-03T02:06:07.524Z,99067.75
2019-05-03T02:08:36.145Z,99065.55
2019-05-03T02:11:04.829Z,99065.37
2019-05-03T02:13:33.471Z,99065.25
2019-05-03T02:16:02.408Z,99062.36
2019-05-03T02:18:31.850Z,99061.03
2019-05-03T02:21:01.694Z,99066.58
2019-05-03T02:23:31.928Z,99062.83
2019-05-03T02:26:02.895Z,99062.97
2019-05-03T02:28:32.689Z,99061.33
2019-05-03T02:31:03.484Z,99064.30
2019-05-03T02:33:32.880Z,99056.02
2019-05-03T02:36:03.573Z,99073.89
2019-05-03T02:38:33.747Z,99062.06
2019-05-03T02:41:03.003Z,99067.08
2019-05-03T02:43:36.117Z,99065.91
2019-05-03T02:46:08.121Z,99074.44
2019-05-03T02:48:38.411Z,99075.36
2019-05-03T02:51:06.977Z,99081.34
2019-05-03T02:53:36.187Z,99088.13
2019-05-03T02:56:15.065Z,99093.62
2019-05-03T02:58:38.317Z,99089.81
2019-05-03T03:01:07.174Z,99097.95
2019-05-03T03:03:36.644Z,99099.13
2019-05-03T03:06:07.029Z,99099.92
2019-05-03T03:08:37.455Z,99099.47
2019-05-03T03:11:08.436Z,99099.92
2019-05-03T03:13:38.830Z,99102.99
2019-05-03T03:16:09.592Z,99100.32
2019-05-03T03:18:40.058Z,99095.77
2019-05-03T03:21:12.144Z,99099.53
2019-05-03T03:23:52.260Z,99100.98
2019-05-03T03:26:34.522Z,99103.77
2019-05-03T03:28:56.703Z,99105.65
2019-05-03T03:31:37.802Z,99101.21
2019-05-03T03:34:09.394Z,99101.09
2019-05-03T03:36:54.489Z,99099.08
2019-05-03T03:39:15.151Z,99103.17
2019-05-03T03:41:45.352Z,99101.63
2019-05-03T03:44:15.431Z,99106.22
2019-05-03T03:46:45.928Z,99105.43
2019-05-03T03:49:16.322Z,99106.75
2019-05-03T03:51:46.914Z,99107.21
2019-05-03T03:54:18.193Z,99103.31
2019-05-03T03:57:00.605Z,99105.22
2019-05-03T03:59:20.104Z,99107.41
2019-05-03T04:01:48.757Z,99109.30
2019-05-03T04:04:17.411Z,99114.99
2019-05-03T04:06:46.661Z,99116.25
2019-05-03T04:09:16.081Z,99114.46
2019-05-03T04:11:46.334Z,99114.58
2019-05-03T04:14:16.688Z,99104.20
2019-05-03T04:17:05.942Z,99112.03
2019-05-03T04:19:38.702Z,99113.40
2019-05-03T04:22:07.440Z,99108.82
2019-05-03T04:24:36.225Z,99112.42
2019-05-03T04:27:17.739Z,99121.73
2019-05-03T04:29:36.919Z,99116.25
2019-05-03T04:32:07.377Z,99124.08
2019-05-03T04:34:36.105Z,99126.47
2019-05-03T04:37:05.704Z,99128.23
2019-05-03T04:39:35.948Z,99134.88
2019-05-03T04:42:06.762Z,99139.16
2019-05-03T04:44:35.943Z,99140.47
2019-05-03T04:47:06.910Z,99147.04
2019-05-03T04:49:36.163Z,99149.77
2019-05-03T04:52:05.767Z,99150.75
2019-05-03T04:54:51.487Z,99154.70
2019-05-03T04:57:34.891Z,99150.34
2019-05-03T04:59:50.449Z,99151.88
2019-05-03T05:02:19.097Z,99156.04
2019-05-03T05:04:47.697Z,99152.31
2019-05-03T05:07:16.348Z,99152.59
2019-05-03T05:09:45.633Z,99155.73
2019-05-03T05:12:17.487Z,99163.00
2019-05-03T05:14:46.094Z,99157.19
2019-05-03T05:17:16.685Z,99154.49
2019-05-03T05:19:47.071Z,99159.20
2019-05-03T05:22:17.273Z,99159.55
2019-05-03T05:24:45.920Z,99154.52
2019-05-03T05:27:16.049Z,99160.16
2019-05-03T05:29:47.731Z,99158.47
2019-05-03T05:32:16.375Z,99154.86
2019-05-03T05:34:46.082Z,99150.33
2019-05-03T05:37:17.475Z,99152.44
2019-05-03T05:39:46.109Z,99152.44
2019-05-03T05:42:14.881Z,99153.47
2019-05-03T05:44:45.413Z,99151.98
2019-05-03T05:47:21.717Z,99147.92
2019-05-03T05:49:51.922Z,99146.75
2019-05-03T05:52:24.526Z,99140.27
2019-05-03T05:55:04.620Z,99140.27
2019-05-03T05:57:44.783Z,99147.34
2019-05-03T06:00:20.806Z,99147.34
2019-05-03T06:02:49.511Z,99139.47
2019-05-03T06:05:18.124Z,99135.45
2019-05-03T06:07:48.330Z,99135.89
2019-05-03T06:10:18.656Z,99135.89
2019-05-03T06:12:54.620Z,99144.47
2019-05-03T06:15:34.528Z,99154.60
2019-05-03T06:18:21.129Z,99149.88
2019-05-03T06:20:54.386Z,99146.06
2019-05-03T06:23:24.918Z,99136.05
2019-05-03T06:25:54.551Z,99145.40
2019-05-03T06:28:25.260Z,99143.11
2019-05-03T06:30:58.465Z,99144.19
2019-05-03T06:33:27.111Z,99142.73
2019-05-03T06:35:55.761Z,99141.11
2019-05-03T06:38:24.547Z,99138.73
2019-05-03T06:40:54.430Z,99137.34
2019-05-03T06:43:24.444Z,99139.84
2019-05-03T06:45:54.817Z,99137.37
2019-05-03T06:48:28.194Z,99136.73
2019-05-03T06:50:55.691Z,99135.83
2019-05-03T06:53:25.457Z,99125.58
2019-05-03T06:55:55.428Z,99128.11
2019-05-03T06:58:32.188Z,99128.70
2019-05-03T07:00:56.053Z,99128.69
2019-05-03T07:03:31.961Z,99128.55
2019-05-03T07:06:17.299Z,99130.95
2019-05-03T07:08:47.512Z,99126.52
2019-05-03T07:11:16.161Z,99127.08
2019-05-03T07:13:45.016Z,99119.19
2019-05-03T07:16:14.970Z,99122.60
2019-05-03T07:18:45.436Z,99119.09
2019-05-03T07:21:15.260Z,99116.03
2019-05-03T07:23:45.124Z,99122.23
2019-05-03T07:26:15.128Z,99115.95
2019-05-03T07:28:47.822Z,99123.86
2019-05-03T07:31:15.056Z,99112.32
2019-05-03T07:33:44.636Z,99105.04
2019-05-03T07:36:15.270Z,99104.57
2019-05-03T07:38:45.378Z,99094.65
2019-05-03T07:41:14.877Z,99087.27
2019-05-03T07:43:45.073Z,99085.55
2019-05-03T07:46:14.708Z,99091.50
2019-05-03T07:48:45.522Z,99084.89
2019-05-03T07:51:14.400Z,99090.73
2019-05-03T07:53:45.106Z,99084.13
2019-05-03T07:56:15.440Z,99081.31
2019-05-03T07:58:59.083Z,99081.53
2019-05-03T08:01:20.678Z,99080.53
2019-05-03T08:03:49.314Z,99077.02
2019-05-03T08:06:17.963Z,99075.33
2019-05-03T08:08:54.414Z,99072.98
2019-05-03T08:11:24.736Z,99070.00
2019-05-03T08:13:55.644Z,99070.63
2019-05-03T08:16:25.096Z,99069.02
2019-05-03T08:18:55.850Z,99069.75
2019-05-03T08:21:25.348Z,99068.16
2019-05-03T08:23:55.739Z,99068.75
2019-05-03T08:26:25.658Z,99072.03
2019-05-03T08:28:57.313Z,99070.75
2019-05-03T08:31:45.424Z,99069.16
2019-05-03T08:34:21.654Z,99059.56
2019-05-03T08:37:01.040Z,99060.29
2019-05-03T08:39:29.670Z,99049.86
2019-05-03T08:41:59.947Z,99048.77
2019-05-03T08:44:28.631Z,99038.98
2019-05-03T08:46:57.882Z,99033.91
2019-05-03T08:49:26.512Z,99027.41
2019-05-03T08:51:55.397Z,99026.23
2019-05-03T08:54:27.113Z,99017.61
2019-05-03T08:56:55.953Z,99023.47
2019-05-03T08:59:31.576Z,99021.67
2019-05-03T09:01:55.244Z,99022.52
2019-05-03T09:04:36.256Z,99018.71
2019-05-03T09:06:55.257Z,99018.93
2019-05-03T09:09:26.065Z,99016.06
2019-05-03T09:11:55.733Z,99015.35
2019-05-03T09:14:38.191Z,99008.23
2019-05-03T09:16:55.719Z,99002.64
2019-05-03T09:19:25.593Z,98998.34
2019-05-03T09:21:54.847Z,98993.16
2019-05-03T09:24:26.763Z,98995.63
2019-05-03T09:26:55.726Z,98990.27
2019-05-03T09:29:25.535Z,98983.69
2019-05-03T09:31:57.240Z,98978.05
2019-05-03T09:34:25.873Z,98976.12
2019-05-03T09:36:55.321Z,98979.98
2019-05-03T09:39:24.601Z,98978.77
2019-05-03T09:41:56.012Z,98977.45
2019-05-03T09:44:24.640Z,98975.81
2019-05-03T09:46:55.024Z,98967.13
2019-05-03T09:49:25.367Z,98966.55
2019-05-03T09:51:54.900Z,98959.51
2019-05-03T09:54:27.972Z,98950.97
2019-05-03T09:56:59.789Z,98949.67
2019-05-03T09:59:29.266Z,98948.77
2019-05-03T10:01:58.567Z,98941.20
2019-05-03T10:04:27.265Z,98935.60
2019-05-03T10:06:55.895Z,98936.28
2019-05-03T10:09:26.122Z,98930.38
2019-05-03T10:11:55.301Z,98916.77
2019-05-03T10:14:24.066Z,98914.55
2019-05-03T10:17:04.957Z,98911.19
2019-05-03T10:19:37.667Z,98904.84
2019-05-03T10:22:04.557Z,98900.71
2019-05-03T10:24:35.079Z,98901.97
2019-05-03T10:27:05.618Z,98898.44
2019-05-03T10:29:34.344Z,98886.59
2019-05-03T10:32:07.026Z,98879.47
2019-05-03T10:34:35.832Z,98880.33
2019-05-03T10:37:05.266Z,98874.67
2019-05-03T10:39:36.086Z,98866.64
2019-05-03T10:42:04.776Z,98869.22
2019-05-03T10:44:35.839Z,98862.56
2019-05-03T10:47:05.456Z,98855.22
2019-05-03T10:49:35.221Z,98852.84
2019-05-03T10:52:05.810Z,98852.75
2019-05-03T10:54:35.777Z,98848.28
2019-05-03T10:57:06.437Z,98844.11
2019-05-03T10:59:35.561Z,98842.91
2019-05-03T11:02:15.050Z,98831.70
2019-05-03T11:04:46.148Z,98829.27
2019-05-03T11:07:14.887Z,98828.18
2019-05-03T11:09:49.556Z,98822.61
2019-05-03T11:12:14.841Z,98824.79
2019-05-03T11:14:46.266Z,98828.06
2019-05-03T11:17:15.018Z,98822.39
2019-05-03T11:19:45.277Z,98820.47
2019-05-03T11:22:14.571Z,98822.90
2019-05-03T11:24:45.311Z,98814.75
2019-05-03T11:27:17.991Z,98815.48
2019-05-03T11:29:46.564Z,98812.86
2019-05-03T11:32:22.874Z,98805.36
2019-05-03T11:34:55.257Z,98805.37
2019-05-03T11:37:25.196Z,98804.19
2019-05-03T11:39:55.722Z,98797.14
2019-05-03T11:42:24.538Z,98797.05
2019-05-03T11:44:53.205Z,98786.12
2019-05-03T11:47:24.819Z,98786.96
2019-05-03T11:49:52.093Z,98783.87
2019-05-03T11:52:20.671Z,98777.47
2019-05-03T11:54:49.238Z,98784.10
2019-05-03T11:57:19.755Z,98785.03
2019-05-03T11:59:48.242Z,98776.17
2019-05-03T12:02:30.242Z,98775.32
2019-05-03T12:05:06.214Z,98780.59
2019-05-03T12:07:39.327Z,98777.19
2019-05-03T12:10:17.067Z,98776.53
2019-05-03T12:12:44.929Z,98774.59
2019-05-03T12:15:15.099Z,98772.09
2019-05-03T12:17:54.368Z,98757.94
2019-05-03T12:20:17.803Z,98754.44
2019-05-03T12:22:47.290Z,98753.05
2019-05-03T12:25:17.249Z,98748.66
2019-05-03T12:27:48.975Z,98736.64
2019-05-03T12:30:18.020Z,98740.19
2019-05-03T12:32:49.642Z,98730.02
2019-05-03T12:35:21.104Z,98728.56
2019-05-03T12:37:49.743Z,98729.16
2019-05-03T12:40:18.420Z,98730.21
2019-05-03T12:42:47.059Z,98724.58
2019-05-03T12:45:15.711Z,98722.47
2019-05-03T12:47:45.323Z,98717.54
2019-05-03T12:50:15.671Z,98722.81
2019-05-03T12:52:50.389Z,98712.15
2019-05-03T12:55:15.396Z,98713.09
2019-05-03T12:57:47.165Z,98702.56
2019-05-03T13:00:33.269Z,98692.64
2019-05-03T13:03:04.552Z,98690.80
2019-05-03T13:05:33.329Z,98691.99
2019-05-03T13:08:21.308Z,98702.14
2019-05-03T13:10:49.904Z,98683.97
2019-05-03T13:13:21.038Z,98678.06
2019-05-03T13:15:49.599Z,98672.16
2019-05-03T13:18:18.203Z,98664.53
2019-05-03T13:20:46.783Z,98652.52
2019-05-03T13:23:15.353Z,98654.34
2019-05-03T13:25:44.779Z,98655.81
2019-05-03T13:28:15.335Z,98656.83
2019-05-03T13:30:45.335Z,98653.45
2019-05-03T13:33:15.174Z,98648.89
2019-05-03T13:35:44.604Z,98651.52
2019-05-03T13:38:13.333Z,98651.20
2019-05-03T13:40:41.963Z,98645.13
2019-05-03T13:43:10.637Z,98644.20
2019-05-03T13:45:39.443Z,98638.98
2019-05-03T13:48:08.082Z,98642.68
2019-05-03T13:50:36.690Z,98643.95
2019-05-03T13:53:05.198Z,98639.33
2019-05-03T13:55:35.254Z,98630.55
2019-05-03T13:58:05.213Z,98638.16
2019-05-03T14:00:34.569Z,98645.28
2019-05-03T14:03:04.592Z,98636.91
2019-05-03T14:05:35.045Z,98631.95
2019-05-03T14:08:05.057Z,98629.14
2019-05-03T14:10:35.904Z,98629.77
2019-05-03T14:13:05.606Z,98622.77
2019-05-03T14:15:34.778Z,98631.51
2019-05-03T14:18:05.941Z,98629.61
2019-05-03T14:20:35.744Z,98626.51
2019-05-03T14:23:05.200Z,98631.31
2019-05-03T14:25:35.121Z,98638.20
2019-05-03T14:28:05.471Z,98641.67
2019-05-03T14:30:34.739Z,98634.03
2019-05-03T14:33:06.089Z,98633.27
2019-05-03T14:35:34.801Z,98630.15
2019-05-03T14:38:05.733Z,98636.16
2019-05-03T14:40:33.890Z,98637.56
2019-05-03T14:43:05.288Z,98638.32
2019-05-03T14:45:36.860Z,98644.56
2019-05-03T14:48:08.204Z,98646.84
2019-05-03T14:50:36.736Z,98642.11
2019-05-03T14:53:05.663Z,98656.79
2019-05-03T14:55:38.559Z,98644.22
2019-05-03T14:58:11.679Z,98648.06
2019-05-03T15:00:41.915Z,98645.98
2019-05-03T15:03:12.195Z,98642.16
2019-05-03T15:05:40.754Z,98637.59
2019-05-03T15:08:09.362Z,98637.00
2019-05-03T15:10:37.936Z,98633.03
2019-05-03T15:13:06.610Z,98634.33
2019-05-03T15:15:35.262Z,98633.81
2019-05-03T15:18:06.780Z,98627.69
2019-05-03T15:20:35.427Z,98632.42
2019-05-03T15:23:05.521Z,98636.08
2019-05-03T15:25:34.647Z,98640.23
2019-05-03T15:28:05.003Z,98641.28
2019-05-03T15:30:35.304Z,98639.37
2019-05-03T15:33:06.947Z,98632.86
2019-05-03T15:35:35.591Z,98631.38
2019-05-03T15:38:05.382Z,98631.41
2019-05-03T15:40:34.159Z,98634.98
2019-05-03T15:43:05.517Z,98631.64
2019-05-03T15:45:50.462Z,98630.67
2019-05-03T15:48:20.712Z,98637.02
2019-05-03T15:50:49.342Z,98628.16
2019-05-03T15:53:17.946Z,98630.77
2019-05-03T15:55:46.579Z,98630.62
2019-05-03T15:58:15.407Z,98630.98
2019-05-03T16:00:44.575Z,98638.63
2019-05-03T16:03:14.549Z,98633.12
2019-05-03T16:05:46.201Z,98632.65
2019-05-03T16:08:15.376Z,98640.48
2019-05-03T16:10:45.762Z,98629.13
2019-05-03T16:13:14.439Z,98626.12
2019-05-03T16:15:44.569Z,98626.54
2019-05-03T16:18:14.837Z,98625.62
2019-05-03T16:20:45.110Z,98619.50
2019-05-03T16:23:15.394Z,98622.42
2019-05-03T16:25:44.862Z,98621.81
2019-05-03T16:28:15.341Z,98621.30
2019-05-03T16:30:55.542Z,98623.70
2019-05-03T16:33:28.279Z,98627.33
2019-05-03T16:35:57.034Z,98618.25
2019-05-03T16:38:25.619Z,98615.13
2019-05-03T16:40:54.531Z,98615.44
2019-05-03T16:43:26.204Z,98617.06
2019-05-03T16:45:55.234Z,98621.64
2019-05-03T16:48:24.760Z,98625.10
2019-05-03T16:50:53.347Z,98621.91
2019-05-03T16:53:21.981Z,98619.34
2019-05-03T16:55:50.616Z,98617.79
2019-05-03T16:58:19.181Z,98623.58
2019-05-03T17:00:47.873Z,98627.56
2019-05-03T17:03:18.102Z,98623.34
2019-05-03T17:05:51.132Z,98624.89
2019-05-03T17:08:25.103Z,98629.06
2019-05-03T17:10:57.047Z,98621.64
2019-05-03T17:13:25.728Z,98620.41
2019-05-03T17:15:54.363Z,98625.05
2019-05-03T17:18:24.623Z,98624.68
2019-05-03T17:20:54.799Z,98627.36
2019-05-03T17:23:24.631Z,98626.97
2019-05-03T17:25:53.365Z,98618.81
2019-05-03T17:28:22.004Z,98627.19
2019-05-03T17:30:50.702Z,98623.40
2019-05-03T17:33:19.312Z,98625.45
2019-05-03T17:35:47.881Z,98634.95
2019-05-03T17:38:16.525Z,98634.25
2019-05-03T17:40:49.371Z,98636.38
2019-05-03T17:43:19.517Z,98644.30
2019-05-03T17:46:04.997Z,98644.19
2019-05-03T17:48:36.543Z,98638.64
2019-05-03T17:51:05.347Z,98634.35
2019-05-03T17:53:38.650Z,98639.13
2019-05-03T17:56:18.476Z,98646.38
2019-05-03T17:58:57.882Z,98645.36
2019-05-03T18:01:28.137Z,98638.27
2019-05-03T18:04:09.147Z,98645.16
2019-05-03T18:06:36.264Z,98647.53
2019-05-03T18:09:12.464Z,98651.70
2019-05-03T18:11:45.518Z,98658.08
2019-05-03T18:14:14.668Z,98664.03
2019-05-03T18:16:44.272Z,98659.82
2019-05-03T18:19:12.931Z,98665.17
2019-05-03T18:21:41.560Z,98674.20
2019-05-03T18:24:10.056Z,98678.66
2019-05-03T18:26:38.740Z,98678.61
2019-05-03T18:29:07.437Z,98680.84
2019-05-03T18:31:36.001Z,98688.86
2019-05-03T18:34:18.419Z,98688.14
2019-05-03T18:36:38.857Z,98690.75
2019-05-03T18:39:08.378Z,98682.67
2019-05-03T18:41:37.075Z,98694.26
2019-05-03T18:44:24.771Z,98685.11
2019-05-03T18:46:57.882Z,98690.80
2019-05-03T18:49:26.524Z,98691.90
2019-05-03T18:51:55.478Z,98692.00
2019-05-03T18:54:24.687Z,98685.88
2019-05-03T18:56:55.571Z,98688.24
2019-05-03T18:59:23.777Z,98686.05
2019-05-03T19:01:52.465Z,98685.36
2019-05-03T19:04:34.065Z,98700.78
2019-05-03T19:07:03.829Z,98703.05
2019-05-03T19:09:30.591Z,98712.45
2019-05-03T19:12:00.862Z,98715.28
2019-05-03T19:14:29.443Z,98711.30
2019-05-03T19:16:59.692Z,98723.05
2019-05-03T19:19:35.638Z,98720.87
2019-05-03T19:22:05.102Z,98739.55
2019-05-03T19:24:35.106Z,98727.00
2019-05-03T19:27:05.076Z,98730.70
2019-05-03T19:29:34.358Z,98747.91
2019-05-03T19:32:06.166Z,98741.91
2019-05-03T19:34:46.937Z,98746.24
2019-05-03T19:37:05.407Z,98765.23
2019-05-03T19:39:34.602Z,98759.08
2019-05-03T19:42:03.379Z,98765.19
2019-05-03T19:44:35.228Z,98774.87
2019-05-03T19:47:06.802Z,98774.14
2019-05-03T19:49:35.463Z,98777.12
2019-05-03T19:52:05.202Z,98788.31
2019-05-03T19:54:36.759Z,98788.81
2019-05-03T19:57:05.532Z,98787.41
2019-05-03T19:59:50.542Z,98787.76
2019-05-03T20:02:26.358Z,98789.19
2019-05-03T20:05:05.902Z,98786.67
2019-05-03T20:07:39.048Z,98791.84
2019-05-03T20:10:08.557Z,98789.33
2019-05-03T20:12:40.084Z,98799.33
2019-05-03T20:15:08.797Z,98796.67
2019-05-03T20:17:37.433Z,98794.05
2019-05-03T20:20:08.812Z,98792.59
2019-05-03T20:22:37.381Z,98809.64
2019-05-03T20:25:09.496Z,98825.41
2019-05-03T20:27:38.045Z,98833.47
2019-05-03T20:30:09.418Z,98839.30
2019-05-03T20:32:38.099Z,98830.09
2019-05-03T20:35:16.632Z,98835.39
2019-05-03T20:37:37.992Z,98837.48
2019-05-03T20:40:09.170Z,98836.86
2019-05-03T20:42:55.734Z,98837.62
2019-05-03T20:45:25.961Z,98831.90
2019-05-03T20:48:00.923Z,98835.41
2019-05-03T20:50:29.564Z,98834.34
2019-05-03T20:52:58.145Z,98832.41
2019-05-03T20:55:26.821Z,98832.41
2019-05-03T20:57:55.361Z,98830.95
2019-05-03T21:00:25.799Z,98835.16
2019-05-03T21:02:57.195Z,98829.69
2019-05-03T21:05:30.964Z,98829.77
2019-05-03T21:07:55.145Z,98834.84
2019-05-03T21:10:23.793Z,98835.33
2019-05-03T21:12:54.282Z,98833.41
2019-05-03T21:15:30.573Z,98832.35
2019-05-03T21:18:00.861Z,98839.03
2019-05-03T21:20:37.134Z,98840.37
2019-05-03T21:23:07.914Z,98832.35
2019-05-03T21:26:02.783Z,98839.95
2019-05-03T21:28:11.634Z,98848.59
2019-05-03T21:30:45.345Z,98856.88
2019-05-03T21:33:15.637Z,98860.72
2019-05-03T21:35:45.241Z,98844.89
2019-05-03T21:38:14.110Z,98857.88
2019-05-03T21:40:46.558Z,98857.88
2019-05-03T21:43:15.323Z,98860.36
2019-05-03T21:45:45.619Z,98859.03
2019-05-03T21:48:15.840Z,98867.23
2019-05-03T21:50:44.732Z,98868.33
2019-05-03T21:53:14.731Z,98874.73
2019-05-03T21:55:44.783Z,98872.33
2019-05-03T21:58:16.178Z,98866.51
2019-05-03T22:00:48.724Z,98870.83
2019-05-03T22:03:20.250Z,98865.51
2019-05-03T22:05:54.908Z,98852.67
2019-05-03T22:08:19.121Z,98856.17
2019-05-03T22:10:47.917Z,98854.06
2019-05-03T22:13:19.262Z,98854.06
2019-05-03T22:15:49.478Z,98860.45
2019-05-03T22:18:19.729Z,98863.58
2019-05-03T22:20:54.464Z,98866.52
2019-05-03T22:23:27.961Z,98861.61
2019-05-03T22:25:57.042Z,98854.66
2019-05-03T22:28:25.590Z,98862.02
2019-05-03T22:30:54.595Z,98861.88
2019-05-03T22:33:23.293Z,98859.16
2019-05-03T22:36:07.900Z,98856.52
2019-05-03T22:38:23.720Z,98856.83
2019-05-03T22:40:52.294Z,98850.25
2019-05-03T22:43:20.875Z,98851.86
2019-05-03T22:45:49.437Z,98850.84
2019-05-03T22:48:17.970Z,98849.05
2019-05-03T22:50:46.527Z,98851.00
2019-05-03T22:53:15.027Z,98847.84
2019-05-03T22:55:45.098Z,98858.82
2019-05-03T22:58:15.357Z,98857.05
2019-05-03T23:00:44.518Z,98861.04
2019-05-03T23:03:14.502Z,98857.27
2019-05-03T23:05:45.251Z,98867.28
2019-05-03T23:08:14.808Z,98868.52
2019-05-03T23:10:45.118Z,98877.71
2019-05-03T23:13:15.388Z,98875.06
2019-05-03T23:15:44.032Z,98875.09
2019-05-03T23:18:12.617Z,98877.19
2019-05-03T23:20:44.749Z,98873.71
2019-05-03T23:23:30.729Z,98870.71
2019-05-03T23:25:59.303Z,98870.23
2019-05-03T23:28:27.880Z,98874.24
2019-05-03T23:30:56.442Z,98867.44
2019-05-03T23:33:25.251Z,98863.94
2019-05-03T23:35:55.161Z,98864.98
2019-05-03T23:38:24.678Z,98854.36
2019-05-03T23:40:56.292Z,98850.87
2019-05-03T23:43:25.214Z,98855.19
2019-05-03T23:45:54.549Z,98859.67
2019-05-03T23:48:23.199Z,98856.77
2019-05-03T23:50:51.892Z,98858.01
2019-05-03T23:53:20.405Z,98853.82
2019-05-03T23:55:50.699Z,98849.59
2019-05-03T23:58:19.265Z,98851.05
